Time;durP1;ratioP1;P1;durP2;ratioP2;P2;SDS_P1;SDS_P2;PMS_P1;PMS_P2;Temp;Humidity;BMP_temperature;BMP_pressure;BME280_temperature;BME280_humidity;BME280_pressure;Samples;Min_cycle;Max_cycle;Signal;HPM_P1;HPM_P2
2024/01/13 00:01:50;;;;;;;15.50;8.05;;;-3.40;99.90;;;;;;4911610;29;20043;-34
2024/01/13 00:04:16;;;;;;;26.17;7.53;;;-3.50;99.90;;;;;;4916243;29;20506;-32
2024/01/13 00:06:42;;;;;;;23.40;8.77;;;-3.50;99.90;;;;;;4909011;29;20566;-34
2024/01/13 00:09:07;;;;;;;12.45;9.10;;;-3.50;99.90;;;;;;4910373;29;20023;-33
2024/01/13 00:11:33;;;;;;;12.50;7.20;;;-3.50;99.90;;;;;;4897713;29;20067;-32
2024/01/13 00:13:59;;;;;;;17.10;10.07;;;-3.50;99.90;;;;;;4905201;29;20024;-33
2024/01/13 00:16:25;;;;;;;16.75;7.78;;;-3.50;99.90;;;;;;4907095;29;20487;-33
2024/01/13 00:18:51;;;;;;;13.40;8.02;;;-3.50;99.90;;;;;;4910201;29;20039;-32
2024/01/13 00:21:16;;;;;;;18.10;9.35;;;-3.50;99.90;;;;;;4907818;29;20061;-33
2024/01/13 00:23:42;;;;;;;21.85;10.25;;;-3.50;99.90;;;;;;4900337;29;20122;-36
2024/01/13 00:26:07;;;;;;;29.73;10.13;;;-3.60;99.90;;;;;;4906523;29;20096;-33
2024/01/13 00:28:33;;;;;;;16.80;11.15;;;-3.50;99.90;;;;;;4904083;29;20035;-33
2024/01/13 00:30:58;;;;;;;23.63;11.43;;;-3.60;99.90;;;;;;4903785;29;20100;-37
2024/01/13 00:33:24;;;;;;;22.65;10.77;;;-3.60;99.90;;;;;;4903134;29;20056;-33
2024/01/13 00:35:50;;;;;;;22.90;13.85;;;-3.60;99.90;;;;;;4906708;29;20037;-33
2024/01/13 00:38:16;;;;;;;13.10;8.88;;;-3.60;99.90;;;;;;4889940;29;20028;-33
2024/01/13 00:40:42;;;;;;;25.65;12.80;;;-3.70;99.90;;;;;;4904449;29;20028;-39
2024/01/13 00:43:08;;;;;;;22.67;9.65;;;-3.60;99.90;;;;;;4907450;29;20028;-35
2024/01/13 00:45:34;;;;;;;11.73;8.20;;;-3.70;99.90;;;;;;4907005;29;20039;-34
2024/01/13 00:48:01;;;;;;;23.85;10.77;;;-3.60;99.90;;;;;;4904702;29;20025;-35
2024/01/13 00:50:26;;;;;;;17.08;8.88;;;-3.70;99.90;;;;;;4900947;29;20088;-35
2024/01/13 00:52:52;;;;;;;7.03;6.38;;;-3.60;99.90;;;;;;4904415;29;20051;-33
2024/01/13 00:55:17;;;;;;;12.43;6.75;;;-3.80;99.90;;;;;;4908249;29;20055;-36
2024/01/13 00:57:43;;;;;;;8.75;5.03;;;-3.70;99.90;;;;;;4911391;29;20032;-37
2024/01/13 01:00:10;;;;;;;11.10;4.93;;;-3.70;99.90;;;;;;4901138;29;20034;-33
2024/01/13 01:02:36;;;;;;;5.43;3.53;;;-3.80;99.90;;;;;;4905889;29;20050;-34
2024/01/13 01:05:01;;;;;;;4.85;4.47;;;-3.80;99.90;;;;;;4901210;29;20036;-33
2024/01/13 01:07:27;;;;;;;6.28;5.40;;;-3.80;99.90;;;;;;4906103;29;20442;-36
2024/01/13 01:09:53;;;;;;;21.63;9.05;;;-3.90;99.90;;;;;;4903223;29;20035;-35
2024/01/13 01:12:18;;;;;;;16.33;8.73;;;-3.90;99.90;;;;;;4907002;29;20040;-33
2024/01/13 01:14:44;;;;;;;19.83;9.35;;;-3.80;99.90;;;;;;4904808;29;20058;-36
2024/01/13 01:17:09;;;;;;;26.83;11.70;;;-3.80;99.90;;;;;;4910924;29;20128;-33
2024/01/13 01:19:35;;;;;;;27.65;11.02;;;-3.70;99.90;;;;;;4906491;29;20031;-39
2024/01/13 01:22:00;;;;;;;14.00;7.82;;;-3.70;99.90;;;;;;4908217;29;20028;-39
2024/01/13 01:24:26;;;;;;;20.70;10.68;;;-3.80;99.90;;;;;;4899241;29;20035;-41
2024/01/13 01:26:52;;;;;;;20.00;9.73;;;-3.70;99.90;;;;;;4906546;29;20039;-40
2024/01/13 01:29:17;;;;;;;16.50;11.48;;;-3.70;99.90;;;;;;4909761;29;20079;-33
2024/01/13 01:31:43;;;;;;;27.58;12.77;;;-3.70;99.90;;;;;;4920729;29;20032;-35
2024/01/13 01:34:08;;;;;;;24.52;10.13;;;-3.70;99.90;;;;;;4902928;29;20039;-34
2024/01/13 01:36:34;;;;;;;14.80;9.57;;;-3.60;99.90;;;;;;4906762;29;20615;-35
2024/01/13 01:38:59;;;;;;;19.83;11.57;;;-3.60;99.90;;;;;;4900450;29;20447;-36
2024/01/13 01:41:25;;;;;;;24.60;12.43;;;-3.60;99.90;;;;;;4913489;29;20051;-33
2024/01/13 01:43:51;;;;;;;16.92;10.05;;;-3.60;99.90;;;;;;4906278;29;20036;-34
2024/01/13 01:46:19;;;;;;;22.15;11.10;;;-3.70;99.90;;;;;;4913788;29;20039;-32
2024/01/13 01:48:45;;;;;;;15.73;9.60;;;-3.70;99.90;;;;;;4907491;29;20032;-36
2024/01/13 01:51:13;;;;;;;24.90;12.40;;;-3.70;99.90;;;;;;4909512;29;20032;-39
2024/01/13 01:53:40;;;;;;;36.40;16.48;;;-3.70;99.90;;;;;;4908842;29;20035;-40
2024/01/13 01:56:11;;;;;;;29.77;14.88;;;-3.70;99.90;;;;;;4902568;29;20056;-41
2024/01/13 01:58:38;;;;;;;33.67;14.57;;;-3.70;99.90;;;;;;4908980;29;20039;-43
2024/01/13 02:01:07;;;;;;;27.73;13.55;;;-3.70;99.90;;;;;;4914393;29;20055;-42
2024/01/13 02:03:34;;;;;;;17.30;10.02;;;-3.80;99.90;;;;;;4908335;29;20032;-42
2024/01/13 02:06:02;;;;;;;27.95;13.90;;;-3.80;99.90;;;;;;4902853;29;20056;-39
2024/01/13 02:08:28;;;;;;;35.47;16.05;;;-3.90;99.90;;;;;;4898879;29;20044;-41
2024/01/13 02:10:54;;;;;;;19.90;8.27;;;-3.80;99.90;;;;;;4916395;29;20518;-40
2024/01/13 02:13:19;;;;;;;18.52;9.82;;;-3.80;99.90;;;;;;4912389;29;20028;-43
2024/01/13 02:15:45;;;;;;;31.02;15.13;;;-3.80;99.90;;;;;;4905642;29;20028;-38
2024/01/13 02:18:10;;;;;;;25.83;12.25;;;-3.80;99.90;;;;;;4900440;29;20083;-41
2024/01/13 02:20:36;;;;;;;34.67;13.45;;;-3.80;99.90;;;;;;4900310;29;20040;-41
2024/01/13 02:23:01;;;;;;;34.33;17.08;;;-3.90;99.90;;;;;;4899165;29;20083;-41
2024/01/13 02:25:27;;;;;;;18.00;10.73;;;-3.90;99.90;;;;;;4904286;29;20035;-39
2024/01/13 02:27:53;;;;;;;26.58;14.85;;;-3.90;99.90;;;;;;4898825;29;20542;-41
2024/01/13 02:30:18;;;;;;;40.45;17.35;;;-3.90;99.90;;;;;;4902856;29;20684;-41
2024/01/13 02:32:44;;;;;;;28.33;11.68;;;-3.90;99.90;;;;;;4904395;29;20541;-41
2024/01/13 02:35:09;;;;;;;30.35;14.57;;;-3.90;99.90;;;;;;4906670;29;20389;-41
2024/01/13 02:37:35;;;;;;;23.88;12.75;;;-3.90;99.90;;;;;;4913065;29;20062;-35
2024/01/13 02:40:00;;;;;;;13.20;8.93;;;-3.90;99.90;;;;;;4898925;29;20043;-40
2024/01/13 02:42:26;;;;;;;14.60;8.68;;;-3.90;99.90;;;;;;4903292;29;20059;-41
2024/01/13 02:44:51;;;;;;;32.72;13.20;;;-3.90;99.90;;;;;;4903060;29;20096;-41
2024/01/13 02:47:23;;;;;;;22.83;11.82;;;-3.90;99.90;;;;;;4899472;29;20025;-38
2024/01/13 02:49:49;;;;;;;18.23;12.13;;;-3.90;99.90;;;;;;4898552;29;20036;-41
2024/01/13 02:52:14;;;;;;;27.15;13.82;;;-3.90;99.90;;;;;;4897569;29;20043;-41
2024/01/13 02:54:40;;;;;;;28.55;14.73;;;-3.90;99.90;;;;;;4904613;29;20550;-42
2024/01/13 02:57:05;;;;;;;24.25;11.77;;;-3.90;99.90;;;;;;4894808;29;20032;-40
2024/01/13 02:59:31;;;;;;;18.17;11.73;;;-3.90;99.90;;;;;;4909080;29;20040;-37
2024/01/13 03:01:56;;;;;;;27.80;14.05;;;-3.90;99.90;;;;;;4899286;29;20032;-33
2024/01/13 03:04:22;;;;;;;27.77;11.90;;;-3.90;99.90;;;;;;4904163;29;20092;-33
2024/01/13 03:06:47;;;;;;;35.00;15.27;;;-4.00;99.90;;;;;;4903389;29;20103;-35
2024/01/13 03:09:13;;;;;;;18.92;9.82;;;-4.00;99.90;;;;;;4904907;29;20025;-33
2024/01/13 03:11:38;;;;;;;19.58;12.25;;;-3.90;99.90;;;;;;4894137;29;20019;-34
2024/01/13 03:14:04;;;;;;;17.33;9.18;;;-3.90;99.90;;;;;;4915338;29;20040;-32
2024/01/13 03:16:30;;;;;;;23.83;11.77;;;-3.90;99.90;;;;;;4906397;29;20561;-33
2024/01/13 03:18:55;;;;;;;26.30;12.75;;;-3.90;99.90;;;;;;4904484;29;20036;-32
2024/01/13 03:21:21;;;;;;;31.48;14.40;;;-3.90;99.90;;;;;;4904849;29;20036;-32
2024/01/13 03:23:46;;;;;;;24.80;12.23;;;-3.80;99.90;;;;;;4900460;29;20035;-34
2024/01/13 03:26:13;;;;;;;8.95;6.45;;;-3.80;99.90;;;;;;4905960;29;20120;-36
2024/01/13 03:28:38;;;;;;;21.38;11.98;;;-3.90;99.90;;;;;;4903628;29;20059;-33
2024/01/13 03:31:04;;;;;;;33.88;13.43;;;-3.90;99.90;;;;;;4904031;29;20577;-36
2024/01/13 03:33:29;;;;;;;22.08;12.05;;;-3.90;99.90;;;;;;4908263;29;20043;-36
2024/01/13 03:35:55;;;;;;;12.23;7.07;;;-3.90;99.90;;;;;;4908189;29;20390;-33
2024/01/13 03:38:21;;;;;;;26.58;13.02;;;-3.90;99.90;;;;;;4907653;29;20374;-33
2024/01/13 03:40:46;;;;;;;22.90;11.65;;;-3.90;99.90;;;;;;4897052;29;20040;-36
2024/01/13 03:43:12;;;;;;;34.88;12.57;;;-3.90;99.90;;;;;;4902213;29;20040;-34
2024/01/13 03:45:37;;;;;;;29.75;12.50;;;-3.90;99.90;;;;;;4912072;29;20577;-33
2024/01/13 03:48:03;;;;;;;30.25;12.70;;;-3.90;99.90;;;;;;4898748;29;20056;-35
2024/01/13 03:50:29;;;;;;;31.52;14.50;;;-3.90;99.90;;;;;;4919159;29;20027;-35
2024/01/13 03:52:54;;;;;;;35.25;17.20;;;-3.90;99.90;;;;;;4896225;29;20029;-32
2024/01/13 03:55:20;;;;;;;5.65;4.03;;;-4.00;99.90;;;;;;4920191;29;20040;-32
2024/01/13 03:57:45;;;;;;;25.90;12.38;;;-4.10;99.90;;;;;;4914178;29;20029;-34
2024/01/13 04:00:11;;;;;;;6.25;5.63;;;-4.10;99.90;;;;;;4910363;29;20067;-33
2024/01/13 04:02:37;;;;;;;25.48;10.80;;;-4.10;99.90;;;;;;4904539;29;20049;-32
2024/01/13 04:05:04;;;;;;;27.50;11.50;;;-4.10;99.90;;;;;;4911402;29;20039;-34
2024/01/13 04:07:30;;;;;;;16.05;9.55;;;-4.10;99.90;;;;;;4905449;29;20096;-35
2024/01/13 04:09:55;;;;;;;15.23;8.38;;;-4.10;99.90;;;;;;4906741;29;20029;-41
2024/01/13 04:12:21;;;;;;;28.17;11.38;;;-4.10;99.90;;;;;;4902655;29;20044;-41
2024/01/13 04:14:46;;;;;;;25.30;13.10;;;-4.10;99.90;;;;;;4897811;29;20029;-41
2024/01/13 04:17:12;;;;;;;26.95;13.90;;;-4.10;99.90;;;;;;4906754;29;20037;-41
2024/01/13 04:19:37;;;;;;;23.95;10.00;;;-4.10;99.90;;;;;;4903582;29;20013;-41
2024/01/13 04:22:03;;;;;;;29.15;12.15;;;-4.10;99.90;;;;;;4898667;29;20410;-41
2024/01/13 04:24:28;;;;;;;10.40;5.93;;;-4.10;99.90;;;;;;4902917;29;20079;-42
2024/01/13 04:26:54;;;;;;;26.73;11.40;;;-4.10;99.90;;;;;;4903071;29;20032;-41
2024/01/13 04:29:20;;;;;;;24.75;11.52;;;-4.10;99.90;;;;;;4903418;29;20362;-38
2024/01/13 04:31:45;;;;;;;29.23;13.32;;;-4.10;99.90;;;;;;4910982;29;20043;-39
2024/01/13 04:34:11;;;;;;;18.38;10.40;;;-4.10;99.90;;;;;;4909542;29;20036;-41
2024/01/13 04:36:36;;;;;;;13.80;6.82;;;-4.10;99.90;;;;;;4908125;29;20111;-40
2024/01/13 04:39:03;;;;;;;14.45;9.95;;;-4.10;99.90;;;;;;4902032;29;20035;-41
2024/01/13 04:41:29;;;;;;;27.65;13.63;;;-4.10;99.90;;;;;;4904037;29;20545;-41
2024/01/13 04:43:54;;;;;;;19.83;12.70;;;-4.20;99.90;;;;;;4906521;29;20124;-41
2024/01/13 04:46:20;;;;;;;27.33;13.82;;;-4.20;99.90;;;;;;4904188;29;20618;-40
2024/01/13 04:48:45;;;;;;;36.35;14.25;;;-4.20;99.90;;;;;;4902997;29;20024;-39
2024/01/13 04:51:11;;;;;;;21.98;12.18;;;-4.10;99.90;;;;;;4900525;29;20017;-42
2024/01/13 04:53:37;;;;;;;25.25;13.40;;;-4.10;99.90;;;;;;4906718;29;20036;-41
2024/01/13 04:56:03;;;;;;;29.13;12.68;;;-4.10;99.90;;;;;;4909018;29;20083;-39
2024/01/13 04:58:28;;;;;;;19.88;10.60;;;-4.00;99.90;;;;;;4898931;29;20533;-33
2024/01/13 05:00:54;;;;;;;30.83;12.57;;;-4.10;99.90;;;;;;4908284;29;20032;-36
2024/01/13 05:03:19;;;;;;;33.80;15.15;;;-4.10;99.90;;;;;;4906184;29;20513;-35
2024/01/13 05:05:45;;;;;;;7.00;5.72;;;-4.00;99.90;;;;;;4903989;29;20064;-37
2024/01/13 05:08:11;;;;;;;26.70;12.05;;;-4.00;99.90;;;;;;4900174;29;20063;-33
2024/01/13 05:10:37;;;;;;;28.40;12.77;;;-4.10;99.90;;;;;;4903281;29;20397;-35
2024/01/13 05:13:02;;;;;;;32.72;15.95;;;-4.00;99.90;;;;;;4908164;29;20028;-33
2024/01/13 05:15:28;;;;;;;26.00;11.43;;;-4.00;99.90;;;;;;4907708;29;20107;-33
2024/01/13 05:17:54;;;;;;;24.58;9.68;;;-4.00;99.90;;;;;;4899929;29;20372;-38
2024/01/13 05:20:19;;;;;;;26.65;12.57;;;-4.00;99.90;;;;;;4908119;29;20047;-35
2024/01/13 05:22:45;;;;;;;22.05;12.55;;;-3.90;99.90;;;;;;4906425;29;20059;-38
2024/01/13 05:25:10;;;;;;;20.92;12.70;;;-3.90;99.90;;;;;;4904549;29;20095;-33
2024/01/13 05:27:36;;;;;;;27.35;13.57;;;-3.90;99.90;;;;;;4906933;29;20027;-33
2024/01/13 05:30:03;;;;;;;19.98;12.27;;;-3.90;99.90;;;;;;4904219;29;20107;-32
2024/01/13 05:32:28;;;;;;;22.40;12.88;;;-3.90;99.90;;;;;;4902908;29;20031;-34
2024/01/13 05:34:54;;;;;;;8.88;8.00;;;-3.90;99.90;;;;;;4910077;29;20024;-38
2024/01/13 05:37:19;;;;;;;9.23;5.43;;;-3.90;99.90;;;;;;4907396;29;20028;-35
2024/01/13 05:39:45;;;;;;;8.68;6.93;;;-3.90;99.90;;;;;;4901255;29;20044;-36
2024/01/13 05:42:10;;;;;;;25.63;13.27;;;-4.00;99.90;;;;;;4909273;29;20039;-35
2024/01/13 05:44:36;;;;;;;30.52;14.35;;;-4.00;99.90;;;;;;4910725;29;20439;-33
2024/01/13 05:47:02;;;;;;;25.90;12.60;;;-3.90;99.90;;;;;;4910210;29;20377;-34
2024/01/13 05:49:27;;;;;;;25.40;11.20;;;-3.90;99.90;;;;;;4904072;29;20028;-34
2024/01/13 05:51:53;;;;;;;17.92;9.35;;;-3.90;99.90;;;;;;4910016;29;20477;-33
2024/01/13 05:54:18;;;;;;;24.75;12.93;;;-3.90;99.90;;;;;;4911098;29;20051;-35
2024/01/13 05:56:44;;;;;;;25.10;11.40;;;-3.90;99.90;;;;;;4909487;29;20119;-37
2024/01/13 05:59:10;;;;;;;23.48;10.77;;;-3.90;99.90;;;;;;4895288;29;20068;-33
2024/01/13 06:01:35;;;;;;;26.63;12.75;;;-3.90;99.90;;;;;;4908141;29;20398;-33
2024/01/13 06:04:01;;;;;;;14.25;7.93;;;-3.90;99.90;;;;;;4905126;29;20044;-35
2024/01/13 06:06:26;;;;;;;18.17;9.75;;;-3.90;99.90;;;;;;4906844;29;20024;-33
2024/01/13 06:08:52;;;;;;;19.30;12.98;;;-4.00;99.90;;;;;;4902023;29;20063;-39
2024/01/13 06:11:17;;;;;;;23.10;10.38;;;-3.90;99.90;;;;;;4899101;29;20021;-41
2024/01/13 06:13:43;;;;;;;17.08;10.38;;;-4.00;99.90;;;;;;4905916;29;20058;-40
2024/01/13 06:16:09;;;;;;;17.00;6.38;;;-4.00;99.90;;;;;;4904631;29;20036;-42
2024/01/13 06:18:35;;;;;;;28.48;12.23;;;-4.10;99.90;;;;;;4902831;29;20037;-41
2024/01/13 06:21:01;;;;;;;18.95;7.60;;;-4.10;99.90;;;;;;4899370;29;20847;-41
2024/01/13 06:23:26;;;;;;;29.73;12.55;;;-4.10;99.90;;;;;;4901302;29;20112;-41
2024/01/13 06:25:52;;;;;;;18.17;7.75;;;-4.10;99.90;;;;;;4899904;29;20415;-40
2024/01/13 06:28:24;;;;;;;19.45;11.40;;;-4.10;99.90;;;;;;4904402;29;20071;-41
2024/01/13 06:30:50;;;;;;;23.42;14.48;;;-4.20;99.90;;;;;;4909090;29;20043;-34
2024/01/13 06:33:15;;;;;;;28.17;13.73;;;-4.20;99.90;;;;;;4908497;29;20118;-35
2024/01/13 06:35:41;;;;;;;10.00;7.15;;;-4.10;99.90;;;;;;4903822;29;20104;-41
2024/01/13 06:38:06;;;;;;;22.67;11.43;;;-4.10;99.90;;;;;;4908160;29;20028;-36
2024/01/13 06:40:32;;;;;;;31.73;12.45;;;-4.10;99.90;;;;;;4904099;29;20040;-34
2024/01/13 06:42:58;;;;;;;33.10;13.57;;;-4.10;99.90;;;;;;4912154;29;20111;-34
2024/01/13 06:45:23;;;;;;;22.63;11.55;;;-4.10;99.90;;;;;;4907832;29;20035;-34
2024/01/13 06:47:49;;;;;;;30.58;12.85;;;-4.10;99.90;;;;;;4915029;29;20030;-35
2024/01/13 06:50:14;;;;;;;30.95;13.45;;;-4.10;99.90;;;;;;4911366;29;20017;-32
2024/01/13 06:52:40;;;;;;;10.48;6.53;;;-4.20;99.90;;;;;;4900633;29;20032;-34
2024/01/13 06:55:06;;;;;;;15.93;7.55;;;-4.30;99.90;;;;;;4903477;29;20086;-34
2024/01/13 06:57:32;;;;;;;25.77;11.02;;;-4.30;99.90;;;;;;4909470;29;20027;-33
2024/01/13 06:59:58;;;;;;;19.20;9.20;;;-4.40;99.90;;;;;;4904693;29;20024;-33
2024/01/13 07:02:23;;;;;;;13.73;6.63;;;-4.40;99.90;;;;;;4905471;29;20369;-34
2024/01/13 07:04:50;;;;;;;21.30;11.63;;;-4.40;99.90;;;;;;4901407;29;20486;-36
2024/01/13 07:07:16;;;;;;;24.08;11.57;;;-4.40;99.90;;;;;;4901624;29;20138;-33
2024/01/13 07:09:41;;;;;;;7.53;5.53;;;-4.30;99.90;;;;;;4902907;29;20615;-34
2024/01/13 07:12:07;;;;;;;28.65;11.25;;;-4.30;99.90;;;;;;4896524;29;20351;-32
2024/01/13 07:14:33;;;;;;;13.18;9.05;;;-4.30;99.90;;;;;;4909197;29;20032;-33
2024/01/13 07:16:58;;;;;;;28.33;13.45;;;-4.20;99.90;;;;;;4907156;29;20028;-32
2024/01/13 07:19:24;;;;;;;11.43;6.68;;;-4.30;99.90;;;;;;4901234;29;20016;-34
2024/01/13 07:21:49;;;;;;;28.48;13.80;;;-4.20;99.90;;;;;;4903585;29;20580;-34
2024/01/13 07:24:15;;;;;;;26.70;13.57;;;-4.30;99.90;;;;;;4899495;29;20112;-34
2024/01/13 07:26:43;;;;;;;18.48;10.48;;;-4.30;99.90;;;;;;4903983;29;20040;-34
2024/01/13 07:29:08;;;;;;;6.07;4.47;;;-4.20;99.90;;;;;;4903695;29;20725;-33
2024/01/13 07:31:34;;;;;;;18.27;10.48;;;-4.20;99.90;;;;;;4912241;29;20029;-33
2024/01/13 07:34:00;;;;;;;29.90;15.63;;;-4.20;99.90;;;;;;4904546;29;20478;-33
2024/01/13 07:36:26;;;;;;;33.15;13.55;;;-4.20;99.90;;;;;;4904648;29;20131;-34
2024/01/13 07:38:51;;;;;;;20.88;10.23;;;-4.20;99.90;;;;;;4907653;29;20032;-41
2024/01/13 07:41:17;;;;;;;29.05;10.98;;;-4.20;99.90;;;;;;4905960;29;20078;-41
2024/01/13 07:43:45;;;;;;;18.17;9.95;;;-4.20;99.90;;;;;;4911722;29;20036;-38
2024/01/13 07:46:12;;;;;;;28.17;11.97;;;-4.20;99.90;;;;;;4909065;29;20036;-41
2024/01/13 07:48:38;;;;;;;15.10;9.18;;;-4.20;99.90;;;;;;4907970;29;20040;-41
2024/01/13 07:51:04;;;;;;;13.35;8.88;;;-4.20;99.90;;;;;;4907552;29;20419;-40
2024/01/13 07:53:29;;;;;;;21.90;11.88;;;-4.30;99.90;;;;;;4894684;29;20091;-42
2024/01/13 07:55:55;;;;;;;21.33;10.48;;;-4.30;99.90;;;;;;4909909;29;20052;-41
2024/01/13 07:58:21;;;;;;;33.40;13.65;;;-4.20;99.90;;;;;;4911884;29;20036;-41
2024/01/13 08:00:46;;;;;;;24.98;13.45;;;-4.10;99.90;;;;;;4906870;29;20067;-38
2024/01/13 08:03:12;;;;;;;22.63;11.40;;;-4.10;99.90;;;;;;4908371;29;20127;-40
2024/01/13 08:05:37;;;;;;;31.30;12.85;;;-4.00;99.90;;;;;;4911974;29;20034;-40
2024/01/13 08:08:06;;;;;;;11.32;9.05;;;-4.10;99.90;;;;;;4909638;29;20118;-41
2024/01/13 08:10:32;;;;;;;21.45;7.68;;;-4.10;99.90;;;;;;4910330;29;20032;-40
2024/01/13 08:13:00;;;;;;;28.45;12.63;;;-4.10;99.90;;;;;;4910474;29;20475;-39
2024/01/13 08:15:26;;;;;;;24.37;12.60;;;-4.10;99.90;;;;;;4914192;29;20095;-41
2024/01/13 08:17:51;;;;;;;22.77;11.45;;;-4.00;99.90;;;;;;4907430;29;20675;-41
2024/01/13 08:20:18;;;;;;;20.83;12.48;;;-4.10;99.90;;;;;;4911734;29;20064;-40
2024/01/13 08:22:46;;;;;;;20.77;10.93;;;-4.10;99.90;;;;;;4909787;29;20032;-37
2024/01/13 08:25:14;;;;;;;17.42;10.77;;;-4.10;99.90;;;;;;4909778;29;20127;-41
2024/01/13 08:27:40;;;;;;;;;;;-4.10;99.90;;;;;;4913991;29;20138;-40
2024/01/13 08:30:06;;;;;;;16.77;10.50;;;-4.10;99.90;;;;;;4912295;29;19998;-38
2024/01/13 08:32:32;;;;;;;26.80;10.38;;;-4.10;99.90;;;;;;4908273;29;20033;-41
2024/01/13 08:34:58;;;;;;;13.25;10.23;;;-4.00;99.90;;;;;;4911223;29;20055;-41
2024/01/13 08:37:24;;;;;;;14.23;10.25;;;-4.10;99.90;;;;;;4905029;29;20099;-41
2024/01/13 08:39:50;;;;;;;21.23;11.43;;;-4.00;99.90;;;;;;4907674;29;20029;-41
2024/01/13 08:42:15;;;;;;;18.95;9.55;;;-4.10;99.90;;;;;;4902942;29;20114;-42
2024/01/13 08:44:41;;;;;;;24.80;12.75;;;-4.10;99.90;;;;;;4903649;29;20029;-38
2024/01/13 08:47:06;;;;;;;23.42;10.80;;;-4.10;99.90;;;;;;4900835;29;20096;-41
2024/01/13 08:49:32;;;;;;;6.93;6.32;;;-4.10;99.90;;;;;;4915058;29;20497;-41
2024/01/13 08:51:58;;;;;;;15.85;8.48;;;-4.10;99.90;;;;;;4915467;29;20032;-42
2024/01/13 08:54:23;;;;;;;22.48;12.20;;;-4.10;99.90;;;;;;4914246;29;20060;-41
2024/01/13 08:56:50;;;;;;;23.90;10.98;;;-4.10;99.90;;;;;;4910511;29;20036;-41
2024/01/13 08:59:15;;;;;;;21.42;11.70;;;-4.20;99.90;;;;;;4915635;29;20036;-38
2024/01/13 09:01:41;;;;;;;19.40;9.32;;;-4.20;99.90;;;;;;4911222;29;20095;-37
2024/01/13 09:04:10;;;;;;;14.10;10.23;;;-4.30;99.90;;;;;;4905950;29;20035;-40
2024/01/13 09:06:35;;;;;;;;;;;-4.20;99.90;;;;;;4906125;29;20092;-42
2024/01/13 09:09:02;;;;;;;15.65;7.68;;;-4.30;99.90;;;;;;4908502;29;19922;-39
2024/01/13 09:11:28;;;;;;;15.35;8.18;;;-4.40;99.90;;;;;;4910202;29;20470;-41
2024/01/13 09:13:54;;;;;;;15.10;9.27;;;-4.40;99.90;;;;;;4905790;29;20055;-41
2024/01/13 09:16:20;;;;;;;10.82;8.05;;;-4.40;99.90;;;;;;4909022;29;20577;-41
2024/01/13 09:18:45;;;;;;;10.80;6.65;;;-4.40;99.90;;;;;;4903633;29;20038;-36
2024/01/13 09:21:12;;;;;;;13.52;11.65;;;-4.40;99.90;;;;;;4906530;29;20047;-39
2024/01/13 09:23:39;;;;;;;11.32;8.40;;;-4.40;99.90;;;;;;4903015;29;20028;-40
2024/01/13 09:26:05;;;;;;;11.85;6.65;;;-4.50;99.90;;;;;;4910018;29;20118;-41
2024/01/13 09:28:33;;;;;;;15.32;9.82;;;-4.50;99.90;;;;;;4906993;29;20076;-40
2024/01/13 09:30:58;;;;;;;9.57;5.53;;;-4.50;99.90;;;;;;4902985;29;20040;-39
2024/01/13 09:33:24;;;;;;;10.93;5.93;;;-4.60;99.90;;;;;;4904794;29;20032;-40
2024/01/13 09:35:50;;;;;;;17.33;7.88;;;-4.70;99.90;;;;;;4900927;29;20024;-36
2024/01/13 09:38:15;;;;;;;13.80;6.88;;;-5.00;99.90;;;;;;4908540;29;20032;-39
2024/01/13 09:40:41;;;;;;;11.27;7.57;;;-5.20;99.90;;;;;;4904470;29;20047;-38
2024/01/13 09:43:24;;;;;;;10.35;6.85;;;-5.20;99.90;;;;;;4907013;29;20043;-33
2024/01/13 09:45:50;;;;;;;3.03;2.83;;;-5.00;99.90;;;;;;4908258;29;20513;-35
2024/01/13 09:48:18;;;;;;;12.32;7.22;;;-4.80;99.90;;;;;;4906759;29;20052;-33
2024/01/13 09:50:54;;;;;;;17.60;8.30;;;-4.90;99.90;;;;;;4907182;29;20534;-38
2024/01/13 09:53:28;;;;;;;7.35;4.90;;;-4.80;99.90;;;;;;4905429;29;20029;-35
2024/01/13 09:56:07;;;;;;;11.45;6.78;;;-4.80;99.90;;;;;;4905353;29;20471;-32
2024/01/13 09:58:32;;;;;;;5.78;4.20;;;-4.90;99.90;;;;;;4909129;29;20028;-34
2024/01/13 10:00:59;;;;;;;8.88;5.78;;;-4.80;99.90;;;;;;4906522;29;20083;-33
2024/01/13 10:03:25;;;;;;;6.25;3.63;;;-4.90;99.90;;;;;;4904624;29;20035;-33
2024/01/13 10:05:52;;;;;;;5.20;3.53;;;-4.80;99.90;;;;;;4900325;29;20126;-33
2024/01/13 10:08:30;;;;;;;4.97;4.20;;;-4.80;99.90;;;;;;4901335;29;20056;-33
2024/01/13 10:10:55;;;;;;;9.02;6.50;;;-4.90;99.90;;;;;;4905673;29;20601;-36
2024/01/13 10:13:21;;;;;;;9.60;6.30;;;-4.80;99.90;;;;;;4908547;29;20111;-33
2024/01/13 10:15:47;;;;;;;17.80;8.55;;;-4.70;99.90;;;;;;4904735;29;20047;-33
2024/01/13 10:18:13;;;;;;;6.38;5.32;;;-4.60;99.90;;;;;;4903908;29;20040;-35
2024/01/13 10:20:39;;;;;;;12.43;6.30;;;-4.60;99.90;;;;;;4905999;29;20076;-33
2024/01/13 10:23:05;;;;;;;12.60;5.38;;;-4.70;99.90;;;;;;4909382;29;20032;-32
2024/01/13 10:25:30;;;;;;;11.00;7.22;;;-4.80;99.90;;;;;;4908217;29;20059;-33
2024/01/13 10:27:56;;;;;;;8.10;6.50;;;-4.80;99.90;;;;;;4901975;29;20097;-35
2024/01/13 10:30:22;;;;;;;8.57;6.60;;;-4.80;99.90;;;;;;4903835;29;20101;-34
2024/01/13 10:32:47;;;;;;;11.48;6.70;;;-4.80;99.90;;;;;;4900426;29;20037;-32
2024/01/13 10:35:17;;;;;;;13.20;4.88;;;-4.70;99.90;;;;;;4906933;29;20035;-35
2024/01/13 10:37:43;;;;;;;10.77;6.28;;;-4.70;99.90;;;;;;4897085;29;20479;-36
2024/01/13 10:40:09;;;;;;;14.55;6.72;;;-4.70;99.90;;;;;;4891868;29;20043;-35
2024/01/13 10:42:38;;;;;;;19.35;8.05;;;-4.70;99.90;;;;;;4901312;29;20036;-33
2024/01/13 10:45:16;;;;;;;5.20;3.55;;;-4.80;99.90;;;;;;4908268;29;20031;-33
2024/01/13 10:47:45;;;;;;;14.00;7.65;;;-4.80;99.90;;;;;;4899789;29;20634;-36
2024/01/13 10:50:11;;;;;;;10.27;6.75;;;-4.80;99.90;;;;;;4901998;29;20526;-34
2024/01/13 10:52:57;;;;;;;11.75;6.55;;;-4.70;99.90;;;;;;4901578;29;20055;-34
2024/01/13 10:55:24;;;;;;;17.67;8.52;;;-4.70;99.90;;;;;;4897742;29;20115;-34
2024/01/13 10:57:50;;;;;;;12.18;7.00;;;-4.80;99.90;;;;;;4900921;29;20103;-33
2024/01/13 11:00:16;;;;;;;14.35;7.28;;;-4.70;99.90;;;;;;4899941;29;20039;-44
2024/01/13 11:02:42;;;;;;;9.18;7.88;;;-4.70;99.90;;;;;;4899494;29;20511;-37
2024/01/13 11:05:10;;;;;;;12.32;6.90;;;-4.50;99.90;;;;;;4902654;29;20034;-42
2024/01/13 11:07:37;;;;;;;18.77;8.02;;;-4.50;99.90;;;;;;4905719;29;20061;-41
2024/01/13 11:10:08;;;;;;;9.80;6.05;;;-4.40;99.90;;;;;;4906425;29;20036;-34
2024/01/13 11:12:41;;;;;;;4.07;3.40;;;-4.40;99.90;;;;;;4902794;29;20029;-33
2024/01/13 11:15:15;;;;;;;9.23;4.93;;;-4.50;99.90;;;;;;4903575;29;20038;-32
2024/01/13 11:17:41;;;;;;;8.10;6.22;;;-4.60;99.90;;;;;;4904920;29;20164;-38
2024/01/13 11:20:09;;;;;;;5.65;3.50;;;-4.50;99.90;;;;;;4903482;29;20127;-35
2024/01/13 11:22:37;;;;;;;16.60;9.50;;;-4.60;99.90;;;;;;4904503;29;21396;-32
2024/01/13 11:25:06;;;;;;;11.68;6.07;;;-4.60;99.90;;;;;;4906876;29;20041;-33
2024/01/13 11:27:32;;;;;;;7.40;4.57;;;-4.50;99.90;;;;;;4909958;29;20028;-36
2024/01/13 11:29:58;;;;;;;17.38;7.40;;;-4.50;99.90;;;;;;4909821;29;20499;-33
2024/01/13 11:32:28;;;;;;;31.58;13.02;;;-4.50;99.90;;;;;;4910524;29;20071;-33
2024/01/13 11:34:55;;;;;;;16.65;7.38;;;-4.60;99.90;;;;;;4906720;29;20035;-33
2024/01/13 11:37:22;;;;;;;10.88;6.55;;;-4.60;99.90;;;;;;4909883;29;20031;-35
2024/01/13 11:39:49;;;;;;;8.98;5.65;;;-4.60;99.90;;;;;;4906603;29;20115;-33
2024/01/13 11:42:17;;;;;;;28.65;8.38;;;-4.50;99.90;;;;;;4906693;29;20452;-35
2024/01/13 11:44:44;;;;;;;18.92;11.10;;;-4.50;99.90;;;;;;4907931;29;20048;-36
2024/01/13 11:47:11;;;;;;;17.52;8.45;;;-4.40;99.90;;;;;;4909203;29;20051;-32
2024/01/13 11:49:37;;;;;;;16.45;8.35;;;-4.30;99.90;;;;;;4911551;29;20551;-32
2024/01/13 11:52:06;;;;;;;24.58;10.50;;;-4.30;99.90;;;;;;4915931;29;20019;-33
2024/01/13 11:54:35;;;;;;;12.52;6.05;;;-4.20;99.90;;;;;;4911351;29;20082;-38
2024/01/13 11:57:05;;;;;;;26.27;10.98;;;-4.20;99.90;;;;;;4911399;29;20071;-35
2024/01/13 11:59:30;;;;;;;4.45;3.67;;;-4.20;99.90;;;;;;4908204;29;20103;-36
2024/01/13 12:01:57;;;;;;;23.08;8.90;;;-4.10;99.90;;;;;;4908073;29;20052;-33
2024/01/13 12:04:30;;;;;;;22.67;9.82;;;-4.10;99.90;;;;;;4909461;29;20498;-36
2024/01/13 12:06:56;;;;;;;23.55;10.73;;;-4.00;99.90;;;;;;4908069;29;20055;-35
2024/01/13 12:09:22;;;;;;;13.55;6.32;;;-4.00;99.90;;;;;;4909153;29;20072;-34
2024/01/13 12:11:53;;;;;;;14.07;6.90;;;-4.10;99.90;;;;;;4911358;29;20042;-33
2024/01/13 12:14:25;;;;;;;7.43;6.68;;;-4.10;99.90;;;;;;4912893;29;20036;-33
2024/01/13 12:16:52;;;;;;;12.43;5.63;;;-4.10;99.90;;;;;;4914457;29;20028;-33
2024/01/13 12:19:20;;;;;;;4.80;3.03;;;-4.00;99.90;;;;;;4911250;29;20032;-41
2024/01/13 12:21:46;;;;;;;15.55;7.38;;;-3.90;99.90;;;;;;4913946;29;20131;-39
2024/01/13 12:24:12;;;;;;;11.63;5.60;;;-4.00;99.90;;;;;;4910703;29;20032;-37
2024/01/13 12:26:38;;;;;;;17.02;8.90;;;-3.90;99.90;;;;;;4912101;29;20028;-41
2024/01/13 12:29:05;;;;;;;26.88;10.90;;;-3.80;99.90;;;;;;4910341;29;20423;-41